createdAt,value
2023-03-15T00:00:21.982Z,15.40
2023-03-15T00:03:16.415Z,16.60
2023-03-15T00:05:52.688Z,14.90
2023-03-15T00:08:26.808Z,14.20
2023-03-15T00:11:00.670Z,13.40
2023-03-15T00:13:35.040Z,14.70
2023-03-15T00:16:09.638Z,14.90
2023-03-15T00:18:43.498Z,15.80
2023-03-15T00:21:17.202Z,14.70
2023-03-15T00:23:50.887Z,17.50
2023-03-15T00:26:25.155Z,14.10
2023-03-15T00:28:58.705Z,15.10
2023-03-15T00:31:32.440Z,14.50
2023-03-15T00:34:05.897Z,14.90
2023-03-15T00:36:39.530Z,13.10
2023-03-15T00:39:13.055Z,12.20
2023-03-15T00:41:47.246Z,9.40
2023-03-15T00:44:21.637Z,6.20
2023-03-15T00:46:55.760Z,3.70
2023-03-15T00:49:29.502Z,3.20
2023-03-15T00:52:03.779Z,2.10
2023-03-15T00:54:38.027Z,1.40
2023-03-15T00:57:11.918Z,1.70
2023-03-15T00:59:45.586Z,1.40
2023-03-15T01:02:22.406Z,0.90
2023-03-15T01:04:56.588Z,2.10
2023-03-15T01:07:30.363Z,3.00
2023-03-15T01:10:03.953Z,3.90
2023-03-15T01:12:37.991Z,1.00
2023-03-15T01:15:15.048Z,1.30
2023-03-15T01:17:49.062Z,2.50
2023-03-15T01:20:22.825Z,2.90
2023-03-15T01:22:56.193Z,5.00
2023-03-15T01:25:29.494Z,2.40
2023-03-15T01:28:03.823Z,2.60
2023-03-15T01:30:37.475Z,2.50
2023-03-15T01:33:11.571Z,1.20
2023-03-15T01:35:45.349Z,2.30
2023-03-15T01:38:19.288Z,3.20
2023-03-15T01:40:53.194Z,2.90
2023-03-15T01:43:28.303Z,2.40
2023-03-15T01:46:08.467Z,2.50
2023-03-15T01:48:50.189Z,2.10
2023-03-15T01:51:34.717Z,2.30
2023-03-15T01:54:12.313Z,1.80
2023-03-15T01:56:54.108Z,2.50
2023-03-15T01:59:32.470Z,4.10
2023-03-15T02:02:07.131Z,2.30
2023-03-15T02:04:46.829Z,2.40
2023-03-15T02:07:23.055Z,2.60
2023-03-15T02:10:03.735Z,2.10
2023-03-15T02:12:43.662Z,2.70
2023-03-15T02:15:18.053Z,1.10
2023-03-15T02:17:52.313Z,2.70
2023-03-15T02:20:37.697Z,3.00
2023-03-15T02:23:14.855Z,1.80
2023-03-15T02:25:58.431Z,3.10
2023-03-15T02:28:34.853Z,2.30
2023-03-15T02:31:08.257Z,2.70
2023-03-15T02:33:45.615Z,5.20
2023-03-15T02:36:23.713Z,3.90
2023-03-15T02:38:58.311Z,3.50
2023-03-15T02:41:36.779Z,3.60
2023-03-15T02:44:13.567Z,4.90
2023-03-15T02:46:49.658Z,3.30
2023-03-15T02:49:29.991Z,3.40
2023-03-15T02:52:04.029Z,2.90
2023-03-15T02:54:37.413Z,6.10
2023-03-15T02:57:11.526Z,3.50
2023-03-15T02:59:45.233Z,6.30
2023-03-15T03:02:19.316Z,4.40
2023-03-15T03:04:54.269Z,4.20
2023-03-15T03:07:28.628Z,3.60
2023-03-15T03:10:08.149Z,4.20
2023-03-15T03:12:53.850Z,3.30
2023-03-15T03:15:33.362Z,4.30
2023-03-15T03:18:07.452Z,3.70
2023-03-15T03:20:41.534Z,4.00
2023-03-15T03:23:15.824Z,5.70
2023-03-15T03:25:49.513Z,4.90
2023-03-15T03:28:24.537Z,4.00
2023-03-15T03:30:59.648Z,3.30
2023-03-15T03:33:33.215Z,5.30
2023-03-15T03:36:07.150Z,5.90
2023-03-15T03:38:40.986Z,3.90
2023-03-15T03:41:15.471Z,7.00
2023-03-15T03:43:49.796Z,6.00
2023-03-15T03:46:23.606Z,6.70
2023-03-15T03:48:59.295Z,6.00
2023-03-15T03:51:34.540Z,2.70
2023-03-15T03:54:08.657Z,4.50
2023-03-15T03:56:42.506Z,7.50
2023-03-15T03:59:16.517Z,7.30
2023-03-15T04:01:58.066Z,5.00
2023-03-15T04:04:31.542Z,6.10
2023-03-15T04:07:05.592Z,6.40
2023-03-15T04:09:43.082Z,4.90
2023-03-15T04:12:17.233Z,4.10
2023-03-15T04:14:52.443Z,4.20
2023-03-15T04:17:28.299Z,7.40
2023-03-15T04:20:06.274Z,7.50
2023-03-15T04:22:50.286Z,8.10
2023-03-15T04:25:34.624Z,7.80
2023-03-15T04:28:19.169Z,7.20
2023-03-15T04:31:19.430Z,7.80
2023-03-15T04:34:19.818Z,5.50
2023-03-15T04:37:10.726Z,9.70
2023-03-15T04:40:08.949Z,7.60
2023-03-15T04:42:55.830Z,10.10
2023-03-15T04:45:48.305Z,6.20
2023-03-15T04:48:47.842Z,5.80
2023-03-15T04:51:57.101Z,9.20
2023-03-15T04:54:46.806Z,5.50
2023-03-15T04:57:44.305Z,9.20
2023-03-15T05:00:37.103Z,6.90
2023-03-15T05:03:29.211Z,9.60
2023-03-15T05:06:21.853Z,5.60
2023-03-15T05:09:19.570Z,7.90
2023-03-15T05:12:16.569Z,7.50
2023-03-15T05:15:18.865Z,8.90
2023-03-15T05:18:19.461Z,8.70
2023-03-15T05:21:12.968Z,8.90
2023-03-15T05:24:05.670Z,9.90
2023-03-15T05:26:58.622Z,10.90
2023-03-15T05:29:52.836Z,9.60
2023-03-15T05:32:53.561Z,7.80
2023-03-15T05:35:46.333Z,11.00
2023-03-15T05:38:27.006Z,10.20
2023-03-15T05:41:19.529Z,9.30
2023-03-15T05:44:02.805Z,7.90
2023-03-15T05:47:06.190Z,8.80
2023-03-15T05:49:58.136Z,7.40
2023-03-15T05:53:04.105Z,10.50
2023-03-15T05:56:11.603Z,8.90
2023-03-15T05:58:58.863Z,10.20
2023-03-15T06:01:51.948Z,10.90
2023-03-15T06:04:30.667Z,15.40
2023-03-15T06:07:04.640Z,15.10
2023-03-15T06:09:39.306Z,15.60
2023-03-15T06:12:13.959Z,12.10
2023-03-15T06:14:48.595Z,16.50
2023-03-15T06:17:22.469Z,13.00
2023-03-15T06:19:56.577Z,12.30
2023-03-15T06:22:30.025Z,12.90
2023-03-15T06:25:10.000Z,16.30
2023-03-15T06:27:43.563Z,10.10
2023-03-15T06:30:18.205Z,12.00
2023-03-15T06:32:53.262Z,14.30
2023-03-15T06:35:27.289Z,12.00
2023-03-15T06:38:01.464Z,15.40
2023-03-15T06:40:35.475Z,10.70
2023-03-15T06:43:09.290Z,9.60
2023-03-15T06:45:43.311Z,14.30
2023-03-15T06:48:17.801Z,12.80
2023-03-15T06:50:51.784Z,11.60
2023-03-15T06:53:25.480Z,15.30
2023-03-15T06:55:59.307Z,13.40
2023-03-15T06:58:33.191Z,15.90
2023-03-15T07:01:08.411Z,10.90
2023-03-15T07:03:42.316Z,12.40
2023-03-15T07:06:15.840Z,15.80
2023-03-15T07:08:49.382Z,12.30
2023-03-15T07:11:23.460Z,9.90
2023-03-15T07:13:57.271Z,13.80
2023-03-15T07:16:31.340Z,16.80
2023-03-15T07:19:05.635Z,10.90
2023-03-15T07:21:39.533Z,13.30
2023-03-15T07:24:13.626Z,13.70
2023-03-15T07:26:47.159Z,12.20
2023-03-15T07:29:20.685Z,11.40
2023-03-15T07:31:54.178Z,13.00
2023-03-15T07:34:28.119Z,16.00
2023-03-15T07:37:02.041Z,13.50
2023-03-15T07:39:35.815Z,13.20
2023-03-15T07:42:10.044Z,18.90
2023-03-15T07:44:48.326Z,14.90
2023-03-15T07:47:22.197Z,14.00
2023-03-15T07:49:56.161Z,15.80
2023-03-15T07:52:29.580Z,10.70
2023-03-15T07:55:05.179Z,10.30
2023-03-15T07:57:39.471Z,10.70
2023-03-15T08:00:15.610Z,12.90
2023-03-15T08:02:49.481Z,10.70
2023-03-15T08:05:23.128Z,14.60
2023-03-15T08:07:57.125Z,13.70
2023-03-15T08:10:31.938Z,12.40
2023-03-15T08:13:05.885Z,11.80
2023-03-15T08:15:39.496Z,13.30
2023-03-15T08:18:13.319Z,13.80
2023-03-15T08:20:46.791Z,12.10
2023-03-15T08:23:20.702Z,12.20
2023-03-15T08:25:54.361Z,10.90
2023-03-15T08:28:28.147Z,10.50
2023-03-15T08:31:01.957Z,11.90
2023-03-15T08:33:35.894Z,11.10
2023-03-15T08:36:10.717Z,12.20
2023-03-15T08:38:44.622Z,9.20
2023-03-15T08:41:18.521Z,12.10
2023-03-15T08:43:52.782Z,9.40
2023-03-15T08:46:26.791Z,9.70
2023-03-15T08:49:01.243Z,10.30
2023-03-15T08:51:35.946Z,11.70
2023-03-15T08:54:09.245Z,11.10
2023-03-15T08:56:42.993Z,11.70
2023-03-15T08:59:28.952Z,10.50
2023-03-15T09:02:05.758Z,9.50
2023-03-15T09:04:40.322Z,9.20
2023-03-15T09:07:14.437Z,9.90
2023-03-15T09:09:48.590Z,10.50
2023-03-15T09:12:23.073Z,10.40
2023-03-15T09:14:57.447Z,10.80
2023-03-15T09:17:32.053Z,13.40
2023-03-15T09:20:09.348Z,12.10
2023-03-15T09:22:43.006Z,10.80
2023-03-15T09:25:17.024Z,10.30
2023-03-15T09:27:50.911Z,10.30
2023-03-15T09:30:25.783Z,8.30
2023-03-15T09:32:59.523Z,10.60
2023-03-15T09:35:33.795Z,11.20
2023-03-15T09:38:07.548Z,11.00
2023-03-15T09:40:46.561Z,12.50
2023-03-15T09:43:47.173Z,9.40
2023-03-15T09:46:31.293Z,9.70
2023-03-15T09:49:14.507Z,11.80
2023-03-15T09:51:53.265Z,10.50
2023-03-15T09:57:04.893Z,11.30
2023-03-15T09:59:43.894Z,9.20
2023-03-15T10:02:25.508Z,10.50
2023-03-15T10:05:04.221Z,10.80
2023-03-15T10:07:38.640Z,10.20
2023-03-15T10:10:20.240Z,10.10
2023-03-15T10:13:02.891Z,10.80
2023-03-15T10:15:46.581Z,10.90
2023-03-15T10:18:36.322Z,9.00
2023-03-15T10:21:17.844Z,9.30
2023-03-15T10:23:55.224Z,11.60
2023-03-15T10:26:34.556Z,10.60
2023-03-15T10:29:16.584Z,11.40
2023-03-15T10:31:53.061Z,10.20
2023-03-15T10:34:27.859Z,12.00
2023-03-15T10:37:01.792Z,13.10
2023-03-15T10:39:35.653Z,8.70
2023-03-15T10:42:24.243Z,11.70
2023-03-15T10:44:58.226Z,10.00
2023-03-15T10:47:32.009Z,10.80
2023-03-15T10:50:06.255Z,10.90
2023-03-15T10:52:42.227Z,11.90
2023-03-15T10:55:18.678Z,11.10
2023-03-15T10:57:58.010Z,11.60
2023-03-15T11:00:34.840Z,9.90
2023-03-15T11:03:18.094Z,10.50
2023-03-15T11:05:53.537Z,11.00
2023-03-15T11:08:39.047Z,10.60
2023-03-15T11:11:13.071Z,9.90
2023-03-15T11:14:02.074Z,9.50
2023-03-15T11:16:39.721Z,11.40
2023-03-15T11:19:20.122Z,9.20
2023-03-15T11:21:54.780Z,11.60
2023-03-15T11:24:30.568Z,9.90
2023-03-15T11:27:05.937Z,12.70
2023-03-15T11:29:42.067Z,10.20
2023-03-15T11:32:21.002Z,8.30
2023-03-15T11:35:02.467Z,8.90
2023-03-15T11:37:41.979Z,8.80
2023-03-15T11:40:20.666Z,10.40
2023-03-15T11:45:38.043Z,8.60
2023-03-15T11:48:34.283Z,9.00
2023-03-15T11:51:09.993Z,7.80
2023-03-15T11:53:47.878Z,9.50
2023-03-15T11:56:31.008Z,8.30
2023-03-15T11:59:11.718Z,9.90
2023-03-15T12:01:50.266Z,10.50
2023-03-15T12:07:40.400Z,10.30
2023-03-15T12:10:49.915Z,9.80
2023-03-15T12:13:28.123Z,8.10
2023-03-15T12:16:02.389Z,8.60
2023-03-15T12:18:46.574Z,7.90
2023-03-15T12:21:25.363Z,9.80
2023-03-15T12:24:05.647Z,9.70
2023-03-15T12:26:50.813Z,10.50
2023-03-15T12:29:26.581Z,8.60
2023-03-15T12:32:07.967Z,6.90
2023-03-15T12:34:49.530Z,7.30
2023-03-15T12:37:26.177Z,10.50
2023-03-15T12:40:26.849Z,10.70
2023-03-15T12:43:07.760Z,9.10
2023-03-15T12:45:45.857Z,8.90
2023-03-15T12:48:27.696Z,7.70
2023-03-15T12:51:07.511Z,8.50
2023-03-15T12:53:47.908Z,14.10
2023-03-15T12:56:33.027Z,10.00
2023-03-15T12:59:17.211Z,9.30
2023-03-15T13:01:52.342Z,10.80
2023-03-15T13:04:28.024Z,9.90
2023-03-15T13:07:25.347Z,8.90
2023-03-15T13:10:29.685Z,9.20
2023-03-15T13:13:14.451Z,12.40
2023-03-15T13:16:00.196Z,11.40
2023-03-15T13:18:38.315Z,10.40
2023-03-15T13:21:19.964Z,9.00
2023-03-15T13:23:58.852Z,9.70
2023-03-15T13:29:18.007Z,10.30
2023-03-15T13:32:04.870Z,8.30
2023-03-15T13:34:39.155Z,11.80
2023-03-15T13:37:22.290Z,7.20
2023-03-15T13:40:02.546Z,12.10
2023-03-15T13:42:41.321Z,11.30
2023-03-15T13:47:51.731Z,12.90
2023-03-15T13:50:25.903Z,14.30
2023-03-15T13:53:00.104Z,11.60
2023-03-15T13:55:37.984Z,10.00
2023-03-15T13:58:12.843Z,12.00
2023-03-15T14:00:47.575Z,11.80
2023-03-15T14:03:24.397Z,11.10
2023-03-15T14:06:00.047Z,12.10
2023-03-15T14:08:37.189Z,11.30
2023-03-15T14:11:19.920Z,11.60
2023-03-15T14:13:58.204Z,10.70
2023-03-15T14:17:01.004Z,11.10
2023-03-15T14:19:37.730Z,12.00
2023-03-15T14:22:20.326Z,11.50
2023-03-15T14:24:55.225Z,10.70
2023-03-15T14:27:30.994Z,11.00
2023-03-15T14:30:06.860Z,15.00
2023-03-15T14:32:52.748Z,14.10
2023-03-15T14:35:31.867Z,11.70
2023-03-15T14:38:17.225Z,11.50
2023-03-15T14:40:52.489Z,12.40
2023-03-15T14:43:27.325Z,15.70
2023-03-15T14:46:02.076Z,16.10
2023-03-15T14:48:36.168Z,18.60
2023-03-15T14:51:15.193Z,13.80
2023-03-15T14:53:50.910Z,17.30
2023-03-15T14:56:25.174Z,14.20
2023-03-15T14:58:59.146Z,10.80
2023-03-15T15:01:33.644Z,11.00
2023-03-15T15:04:08.093Z,11.10
2023-03-15T15:06:53.524Z,10.70
2023-03-15T15:09:31.339Z,15.30
2023-03-15T15:12:05.390Z,12.90
2023-03-15T15:14:39.014Z,9.60
2023-03-15T15:17:13.817Z,16.10
2023-03-15T15:19:47.697Z,10.20
2023-03-15T15:22:22.016Z,13.10
2023-03-15T15:24:58.226Z,14.70
2023-03-15T15:27:32.461Z,10.40
2023-03-15T15:30:09.948Z,11.40
2023-03-15T15:32:50.363Z,11.80
2023-03-15T15:35:24.711Z,12.80
2023-03-15T15:37:59.424Z,16.20
2023-03-15T15:40:35.474Z,11.70
2023-03-15T15:43:12.216Z,15.20
2023-03-15T15:45:47.250Z,11.80
2023-03-15T15:48:21.421Z,11.00
2023-03-15T15:50:57.068Z,10.80
2023-03-15T15:53:34.648Z,13.20
2023-03-15T15:56:12.946Z,15.00
2023-03-15T15:58:48.302Z,12.00
2023-03-15T16:01:23.278Z,17.70
2023-03-15T16:03:58.710Z,17.00
2023-03-15T16:06:35.486Z,16.80
2023-03-15T16:09:14.156Z,11.70
2023-03-15T16:11:49.500Z,13.90
2023-03-15T16:14:24.967Z,13.40
2023-03-15T16:17:00.359Z,13.20
2023-03-15T16:19:34.947Z,9.40
2023-03-15T16:22:09.077Z,11.10
2023-03-15T16:24:48.115Z,10.80
2023-03-15T16:27:29.879Z,9.70
2023-03-15T16:30:17.950Z,17.00
2023-03-15T16:32:55.959Z,13.60
2023-03-15T16:35:37.446Z,13.60
2023-03-15T16:38:24.821Z,14.30
2023-03-15T16:41:02.825Z,12.70
2023-03-15T16:43:43.479Z,13.10
2023-03-15T16:46:26.455Z,10.50
2023-03-15T16:49:04.980Z,15.20
2023-03-15T16:51:45.330Z,16.80
2023-03-15T16:57:26.277Z,10.40
2023-03-15T17:00:12.771Z,14.70
2023-03-15T17:02:53.329Z,18.30
2023-03-15T17:05:31.511Z,15.90
2023-03-15T17:08:08.088Z,12.90
2023-03-15T17:10:49.710Z,13.90
2023-03-15T17:13:37.850Z,17.90
2023-03-15T17:18:54.835Z,13.60
2023-03-15T17:21:38.915Z,16.10
2023-03-15T17:24:17.582Z,18.50
2023-03-15T17:26:58.648Z,20.90
2023-03-15T17:29:38.223Z,16.70
2023-03-15T17:32:21.333Z,17.80
2023-03-15T17:35:02.785Z,16.50
2023-03-15T17:37:46.073Z,15.30
2023-03-15T17:40:39.305Z,16.00
2023-03-15T17:43:20.600Z,16.90
2023-03-15T17:46:01.860Z,15.30
2023-03-15T17:48:44.948Z,18.10
2023-03-15T17:51:24.945Z,22.30
2023-03-15T17:54:01.875Z,17.10
2023-03-15T17:56:46.941Z,21.50
2023-03-15T17:59:22.149Z,23.40
2023-03-15T18:01:59.473Z,20.30
2023-03-15T18:04:41.448Z,20.40
2023-03-15T18:07:20.687Z,18.20
2023-03-15T18:10:00.872Z,17.50
2023-03-15T18:12:40.788Z,18.20
2023-03-15T18:15:24.855Z,21.10
2023-03-15T18:18:01.141Z,21.90
2023-03-15T18:20:38.098Z,20.60
2023-03-15T18:23:18.486Z,22.20
2023-03-15T18:25:57.314Z,23.90
2023-03-15T18:28:35.277Z,22.60
2023-03-15T18:31:17.738Z,25.50
2023-03-15T18:33:55.861Z,19.70
2023-03-15T18:36:34.836Z,21.00
2023-03-15T18:39:13.309Z,22.30
2023-03-15T18:44:27.292Z,23.80
2023-03-15T18:47:08.409Z,30.90
2023-03-15T18:49:51.150Z,24.20
2023-03-15T18:52:32.591Z,27.40
2023-03-15T18:55:17.842Z,26.00
2023-03-15T18:57:58.441Z,25.20
2023-03-15T19:00:38.028Z,29.10
2023-03-15T19:03:20.554Z,25.40
2023-03-15T19:06:10.970Z,27.20
2023-03-15T19:08:56.169Z,29.80
2023-03-15T19:11:39.467Z,29.90
2023-03-15T19:14:17.797Z,35.10
2023-03-15T19:17:00.899Z,35.60
2023-03-15T19:19:39.028Z,30.50
2023-03-15T19:22:16.070Z,33.70
2023-03-15T19:24:55.662Z,30.40
2023-03-15T19:27:33.554Z,25.50
2023-03-15T19:30:15.786Z,29.50
2023-03-15T19:33:05.009Z,26.60
2023-03-15T19:35:42.664Z,28.20
2023-03-15T19:41:01.981Z,27.00
2023-03-15T19:43:44.133Z,27.10
2023-03-15T19:46:29.686Z,27.50
2023-03-15T19:49:11.661Z,27.10
2023-03-15T19:51:53.094Z,26.00
2023-03-15T19:54:34.171Z,28.30
2023-03-15T19:57:16.565Z,24.40
2023-03-15T19:59:55.011Z,22.90
2023-03-15T20:02:37.667Z,24.30
2023-03-15T20:05:17.975Z,25.30
2023-03-15T20:07:59.571Z,22.00
2023-03-15T20:10:41.356Z,25.90
2023-03-15T20:13:23.003Z,27.70
2023-03-15T20:16:02.728Z,28.80
2023-03-15T20:18:44.072Z,27.60
2023-03-15T20:21:23.380Z,24.50
2023-03-15T20:24:05.807Z,26.60
2023-03-15T20:26:47.720Z,28.40
2023-03-15T20:29:28.030Z,24.50
2023-03-15T20:32:05.715Z,25.60
2023-03-15T20:34:47.351Z,25.90
2023-03-15T20:37:25.670Z,27.60
2023-03-15T20:40:10.974Z,29.60
2023-03-15T20:42:52.429Z,25.00
2023-03-15T20:45:33.173Z,25.70
2023-03-15T20:48:11.477Z,26.50
2023-03-15T20:53:25.346Z,26.00
2023-03-15T20:56:05.739Z,33.10
2023-03-15T20:58:43.715Z,30.50
2023-03-15T21:01:27.234Z,27.80
2023-03-15T21:04:09.873Z,25.50
2023-03-15T21:06:51.800Z,28.30
2023-03-15T21:09:31.629Z,23.10
2023-03-15T21:12:16.986Z,28.10
2023-03-15T21:15:03.649Z,27.50
2023-03-15T21:17:42.431Z,32.00
2023-03-15T21:20:19.160Z,28.50
2023-03-15T21:22:57.417Z,34.60
2023-03-15T21:28:09.586Z,25.60
2023-03-15T21:30:45.867Z,31.80
2023-03-15T21:33:20.872Z,31.70
2023-03-15T21:36:00.262Z,29.80
2023-03-15T21:38:38.050Z,30.20
2023-03-15T21:41:14.585Z,35.10
2023-03-15T21:43:53.336Z,37.60
2023-03-15T21:46:28.366Z,38.60
2023-03-15T21:49:04.507Z,34.80
2023-03-15T21:51:39.898Z,41.40
2023-03-15T21:54:15.613Z,41.10
2023-03-15T21:56:53.738Z,45.30
2023-03-15T21:59:28.781Z,40.70
2023-03-15T22:02:04.063Z,43.70
2023-03-15T22:04:38.588Z,38.20
2023-03-15T22:07:12.986Z,38.40
2023-03-15T22:09:46.900Z,42.20
2023-03-15T22:12:20.853Z,37.40
2023-03-15T22:15:05.377Z,39.80
2023-03-15T22:17:39.863Z,41.20
2023-03-15T22:20:17.090Z,37.40
2023-03-15T22:22:51.628Z,41.40
2023-03-15T22:25:25.876Z,41.50
2023-03-15T22:27:59.194Z,45.30
2023-03-15T22:30:33.487Z,42.00
2023-03-15T22:33:07.544Z,41.90
2023-03-15T22:35:41.803Z,43.00
2023-03-15T22:38:16.086Z,43.70
2023-03-15T22:40:49.923Z,43.20
2023-03-15T22:43:23.922Z,43.60
2023-03-15T22:45:57.640Z,39.80
2023-03-15T22:48:32.238Z,43.10
2023-03-15T22:51:07.254Z,43.00
2023-03-15T22:53:40.820Z,43.70
2023-03-15T22:56:14.713Z,40.50
2023-03-15T22:58:49.082Z,38.00
2023-03-15T23:01:23.119Z,33.40
2023-03-15T23:03:57.139Z,38.50
2023-03-15T23:06:30.835Z,39.70
2023-03-15T23:09:06.592Z,48.90
2023-03-15T23:11:40.679Z,48.10
2023-03-15T23:14:14.736Z,48.80
2023-03-15T23:16:48.568Z,43.20
2023-03-15T23:19:22.688Z,40.90
2023-03-15T23:21:56.163Z,44.30
2023-03-15T23:24:29.732Z,43.30
2023-03-15T23:27:03.717Z,39.00
2023-03-15T23:29:53.014Z,30.70
2023-03-15T23:32:28.242Z,29.30
2023-03-15T23:35:03.428Z,30.30
2023-03-15T23:37:37.300Z,31.00
2023-03-15T23:40:15.542Z,28.60
2023-03-15T23:42:53.263Z,31.10
2023-03-15T23:45:28.316Z,30.40
2023-03-15T23:48:02.758Z,28.20
2023-03-15T23:50:39.256Z,36.60
2023-03-15T23:53:12.757Z,31.30
2023-03-15T23:55:46.447Z,24.70
2023-03-15T23:58:20.073Z,27.80
